Time;durP1;ratioP1;P1;durP2;ratioP2;P2;SDS_P1;SDS_P2;PMS_P1;PMS_P2;Temp;Humidity;BMP_temperature;BMP_pressure;BME280_temperature;BME280_humidity;BME280_pressure;Samples;Min_cycle;Max_cycle;Signal;HPM_P1;HPM_P2
2022/12/18 00:02:09;;;;;;;;;6.00;4.00;;;;;-147.17;100.00;-15917.19;4986173;28;51027;-59
2022/12/18 00:04:34;;;;;;;;;45.50;39.50;;;;;-147.17;100.00;-15917.19;4990733;28;52152;-60
2022/12/18 00:07:00;;;;;;;;;44.00;37.50;;;;;-147.17;100.00;-15917.19;4974214;28;50977;-59
2022/12/18 00:09:25;;;;;;;;;51.75;40.25;;;;;-147.17;100.00;-15917.19;4988314;28;51148;-60
2022/12/18 00:11:51;;;;;;;;;45.50;40.25;;;;;-147.17;100.00;-15917.19;4991380;28;51505;-59
2022/12/18 00:14:17;;;;;;;;;45.00;40.00;;;;;-147.17;100.00;-15917.19;4973949;28;54388;-59
2022/12/18 00:16:44;;;;;;;;;54.75;46.25;;;;;-147.17;100.00;-15917.19;4991036;28;51192;-59
2022/12/18 00:19:10;;;;;;;;;41.75;37.00;;;;;-147.17;100.00;-15917.19;4977908;28;51093;-60
2022/12/18 00:21:35;;;;;;;;;47.00;42.25;;;;;-147.17;100.00;-15917.19;4969813;28;51310;-59
2022/12/18 00:24:01;;;;;;;;;41.50;35.00;;;;;-147.17;100.00;-15917.19;4995009;28;51141;-62
2022/12/18 00:26:32;;;;;;;;;40.25;37.25;;;;;-147.17;100.00;-15917.19;4980322;28;51165;-59
2022/12/18 00:29:13;;;;;;;;;45.25;41.25;;;;;-147.17;100.00;-15917.19;4993581;28;51264;-59
2022/12/18 00:31:40;;;;;;;;;41.25;35.25;;;;;-147.17;100.00;-15917.19;4988369;28;51511;-57
2022/12/18 00:34:05;;;;;;;;;46.75;37.50;;;;;-147.17;100.00;-15917.19;4994817;28;52071;-58
2022/12/18 00:36:33;;;;;;;;;44.00;40.25;;;;;-147.17;100.00;-15917.19;4990843;28;50984;-59
2022/12/18 00:39:03;;;;;;;;;44.50;37.50;;;;;-147.17;100.00;-15917.19;4993614;28;51119;-59
2022/12/18 00:44:14;;;;;;;;;34.75;32.75;;;;;-147.17;100.00;-15917.19;4975672;28;51005;-60
2022/12/18 00:46:40;;;;;;;;;42.75;33.50;;;;;-147.17;100.00;-15917.19;4991811;28;50963;-58
2022/12/18 00:49:06;;;;;;;;;46.75;39.75;;;;;-147.17;100.00;-15917.19;4977240;28;50943;-59
2022/12/18 00:51:31;;;;;;;;;40.00;37.25;;;;;-147.17;100.00;-15917.19;4986758;28;51360;-58
2022/12/18 00:53:57;;;;;;;;;41.00;38.00;;;;;-147.17;100.00;-15917.19;4994708;28;52594;-58
2022/12/18 00:56:23;;;;;;;;;39.00;37.50;;;;;-147.17;100.00;-15917.19;4982527;28;51699;-59
2022/12/18 00:58:49;;;;;;;;;43.75;38.50;;;;;-147.17;100.00;-15917.19;4995168;28;51123;-60
2022/12/18 01:01:15;;;;;;;;;46.00;40.00;;;;;-147.17;100.00;-15917.19;4976984;28;52653;-57
2022/12/18 01:03:40;;;;;;;;;40.50;33.25;;;;;-147.17;100.00;-15917.19;4992409;28;51665;-57
2022/12/18 01:06:11;;;;;;;;;40.50;33.75;;;;;-147.17;100.00;-15917.19;4993193;28;51169;-59
2022/12/18 01:08:37;;;;;;;;;51.50;38.50;;;;;-147.17;100.00;-15917.19;4994739;28;51055;-60
2022/12/18 01:11:16;;;;;;;;;33.25;27.25;;;;;-147.17;100.00;-15917.19;4993552;28;51071;-58
2022/12/18 01:13:42;;;;;;;;;34.50;34.25;;;;;-147.17;100.00;-15917.19;4981104;28;51438;-58
2022/12/18 01:16:08;;;;;;;;;37.50;31.00;;;;;-147.17;100.00;-15917.19;4964383;28;51203;-59
2022/12/18 01:18:34;;;;;;;;;39.00;37.25;;;;;-147.17;100.00;-15917.19;4986673;28;50987;-59
2022/12/18 01:21:00;;;;;;;;;35.00;32.00;;;;;-147.17;100.00;-15917.19;4988306;28;51228;-59
2022/12/18 01:23:25;;;;;;;;;36.25;32.50;;;;;-147.17;100.00;-15917.19;4994111;28;51882;-59
2022/12/18 01:25:50;;;;;;;;;37.00;34.00;;;;;-147.17;100.00;-15917.19;4993058;28;50959;-59
2022/12/18 01:28:16;;;;;;;;;44.75;34.75;;;;;-147.17;100.00;-15917.19;4986918;28;51043;-58
2022/12/18 01:30:41;;;;;;;;;43.00;37.75;;;;;-147.17;100.00;-15917.19;4993387;28;51256;-58
2022/12/18 01:33:07;;;;;;;;;45.50;40.50;;;;;-147.17;100.00;-15917.19;4982925;28;53247;-58
2022/12/18 01:35:32;;;;;;;;;33.50;27.75;;;;;-147.17;100.00;-15917.19;4986148;28;51063;-59
2022/12/18 01:37:57;;;;;;;;;45.00;40.00;;;;;-147.17;100.00;-15917.19;4975601;28;50965;-59
2022/12/18 01:40:23;;;;;;;;;41.50;37.50;;;;;-147.17;100.00;-15917.19;4991968;28;51141;-58
2022/12/18 01:42:53;;;;;;;;;25.50;21.25;;;;;-147.17;100.00;-15917.19;4994376;28;51834;-59
2022/12/18 01:45:18;;;;;;;;;43.00;35.50;;;;;-147.17;100.00;-15917.19;4992380;28;51035;-58
2022/12/18 01:47:59;;;;;;;;;40.50;36.00;;;;;-147.17;100.00;-15917.19;4992922;28;51200;-59
2022/12/18 01:50:28;;;;;;;;;38.00;34.75;;;;;-147.17;100.00;-15917.19;4994073;28;51079;-56
2022/12/18 01:52:58;;;;;;;;;33.00;27.00;;;;;-147.17;100.00;-15917.19;4972750;28;52827;-60
2022/12/18 01:55:27;;;;;;;;;40.25;33.25;;;;;-147.17;100.00;-15917.19;4991502;28;51137;-59
2022/12/18 01:57:56;;;;;;;;;34.50;32.25;;;;;-147.17;100.00;-15917.19;4972581;28;50988;-59
2022/12/18 02:00:23;;;;;;;;;30.75;29.50;;;;;-147.17;100.00;-15917.19;4994226;28;51239;-58
2022/12/18 02:02:48;;;;;;;;;42.75;38.00;;;;;-147.17;100.00;-15917.19;4993521;28;51282;-59
2022/12/18 02:05:18;;;;;;;;;37.00;29.00;;;;;-147.17;100.00;-15917.19;4977448;28;51226;-59
2022/12/18 02:08:09;;;;;;;;;41.00;37.00;;;;;-147.17;100.00;-15917.19;4992891;28;51094;-58
2022/12/18 02:10:59;;;;;;;;;36.75;32.50;;;;;-147.17;100.00;-15917.19;4993227;28;51158;-58
2022/12/18 02:13:36;;;;;;;;;38.75;33.75;;;;;-147.17;100.00;-15917.19;4992265;28;51149;-63
2022/12/18 02:16:07;;;;;;;;;36.00;30.25;;;;;-147.17;100.00;-15917.19;4982780;28;51198;-58
2022/12/18 02:18:38;;;;;;;;;40.50;37.75;;;;;-147.17;100.00;-15917.19;4993557;28;51064;-59
2022/12/18 02:21:40;;;;;;;;;34.25;30.50;;;;;-147.17;100.00;-15917.19;4994213;28;51108;-58
2022/12/18 02:24:21;;;;;;;;;48.00;38.75;;;;;-147.17;100.00;-15917.19;4992146;28;51694;-59
2022/12/18 02:26:50;;;;;;;;;47.75;39.00;;;;;-147.17;100.00;-15917.19;4974751;28;51378;-58
2022/12/18 02:29:27;;;;;;;;;31.00;29.75;;;;;-147.17;100.00;-15917.19;4980111;28;50961;-58
2022/12/18 02:31:56;;;;;;;;;41.25;35.75;;;;;-147.17;100.00;-15917.19;4993566;28;51162;-57
2022/12/18 02:34:26;;;;;;;;;37.75;34.50;;;;;-147.17;100.00;-15917.19;4985128;28;51129;-58
2022/12/18 02:36:54;;;;;;;;;46.50;38.00;;;;;-147.17;100.00;-15917.19;4985568;28;51145;-60
2022/12/18 02:39:23;;;;;;;;;38.50;35.00;;;;;-147.17;100.00;-15917.19;4993607;28;51114;-59
2022/12/18 02:41:50;;;;;;;;;35.75;31.75;;;;;-147.17;100.00;-15917.19;4993376;28;51375;-59
2022/12/18 02:44:15;;;;;;;;;29.50;28.50;;;;;-147.17;100.00;-15917.19;4987365;28;51814;-59
2022/12/18 02:46:45;;;;;;;;;35.50;31.50;;;;;-147.17;100.00;-15917.19;4986440;28;51289;-60
2022/12/18 02:49:24;;;;;;;;;28.25;27.00;;;;;-147.17;100.00;-15917.19;4984932;28;51034;-58
2022/12/18 02:51:59;;;;;;;;;48.75;36.75;;;;;-147.17;100.00;-15917.19;4993632;28;51178;-59
2022/12/18 02:54:37;;;;;;;;;38.25;31.00;;;;;-147.17;100.00;-15917.19;4993148;28;51931;-59
2022/12/18 02:57:16;;;;;;;;;33.25;31.00;;;;;-147.17;100.00;-15917.19;4979490;28;51281;-59
2022/12/18 02:59:55;;;;;;;;;39.25;32.75;;;;;-147.17;100.00;-15917.19;4990900;28;52998;-58
2022/12/18 03:02:36;;;;;;;;;36.25;34.00;;;;;-147.17;100.00;-15917.19;4981815;28;50850;-57
2022/12/18 03:05:16;;;;;;;;;30.00;26.00;;;;;-147.17;100.00;-15917.19;4973411;28;53197;-59
2022/12/18 03:08:03;;;;;;;;;41.25;37.25;;;;;-147.17;100.00;-15917.19;4976020;28;51074;-59
2022/12/18 03:10:34;;;;;;;;;31.50;26.25;;;;;-147.17;100.00;-15917.19;4991210;28;51232;-59
2022/12/18 03:13:18;;;;;;;;;31.25;26.75;;;;;-147.17;100.00;-15917.19;4993101;28;50895;-58
2022/12/18 03:15:49;;;;;;;;;34.50;31.50;;;;;-147.17;100.00;-15917.19;4990976;28;51829;-58
2022/12/18 03:18:23;;;;;;;;;20.50;15.75;;;;;-147.17;100.00;-15917.19;4989097;28;51223;-57
2022/12/18 03:20:52;;;;;;;;;20.75;18.00;;;;;-147.17;100.00;-15917.19;4965011;28;51053;-59
2022/12/18 03:23:22;;;;;;;;;29.25;24.25;;;;;-147.17;100.00;-15917.19;4978841;28;51015;-59
2022/12/18 03:25:52;;;;;;;;;46.25;39.25;;;;;-147.17;100.00;-15917.19;4985599;28;51115;-61
2022/12/18 03:28:21;;;;;;;;;42.00;37.00;;;;;-147.17;100.00;-15917.19;4992721;28;51043;-60
2022/12/18 03:30:49;;;;;;;;;45.25;37.00;;;;;-147.17;100.00;-15917.19;4990057;28;51016;-58
2022/12/18 03:33:23;;;;;;;;;26.75;18.75;;;;;-147.17;100.00;-15917.19;4987090;28;50992;-60
2022/12/18 03:35:49;;;;;;;;;37.75;31.50;;;;;-147.17;100.00;-15917.19;4978881;28;51959;-59
2022/12/18 03:38:15;;;;;;;;;28.25;26.50;;;;;-147.17;100.00;-15917.19;4987342;28;51259;-59
2022/12/18 03:41:09;;;;;;;;;39.00;34.50;;;;;-147.17;100.00;-15917.19;4992776;28;51257;-60
2022/12/18 03:43:40;;;;;;;;;26.50;23.25;;;;;-147.17;100.00;-15917.19;4992405;28;50983;-59
2022/12/18 03:46:26;;;;;;;;;37.00;35.50;;;;;-147.17;100.00;-15917.19;4989898;28;51815;-59
2022/12/18 03:49:36;;;;;;;;;38.75;32.00;;;;;-147.17;100.00;-15917.19;4981110;28;50905;-58
2022/12/18 03:52:07;;;;;;;;;36.00;35.75;;;;;-147.17;100.00;-15917.19;4966699;28;50972;-59
2022/12/18 03:54:35;;;;;;;;;30.00;23.00;;;;;-147.17;100.00;-15917.19;4994862;28;51158;-59
2022/12/18 03:57:11;;;;;;;;;40.75;37.00;;;;;-147.17;100.00;-15917.19;4976501;28;52975;-58
2022/12/18 03:59:38;;;;;;;;;34.00;32.50;;;;;-147.17;100.00;-15917.19;4995853;28;50925;-58
2022/12/18 04:02:07;;;;;;;;;39.00;36.25;;;;;-147.17;100.00;-15917.19;4995189;28;51179;-58
2022/12/18 04:04:35;;;;;;;;;18.75;15.50;;;;;-147.17;100.00;-15917.19;4996157;28;51125;-57
2022/12/18 04:07:02;;;;;;;;;37.50;34.00;;;;;-147.17;100.00;-15917.19;4976322;28;53516;-59
2022/12/18 04:09:30;;;;;;;;;31.50;30.25;;;;;-147.17;100.00;-15917.19;4995490;28;51136;-59
2022/12/18 04:11:55;;;;;;;;;22.00;19.50;;;;;-147.17;100.00;-15917.19;4995669;28;51042;-58
2022/12/18 04:14:20;;;;;;;;;21.00;21.00;;;;;-147.17;100.00;-15917.19;4995841;28;50892;-59
2022/12/18 04:16:46;;;;;;;;;36.50;33.25;;;;;-147.17;100.00;-15917.19;4993651;28;50974;-58
2022/12/18 04:19:11;;;;;;;;;49.50;42.50;;;;;-147.17;100.00;-15917.19;4991933;28;51097;-57
2022/12/18 04:21:37;;;;;;;;;40.25;40.00;;;;;-147.17;100.00;-15917.19;4995156;28;51192;-60
2022/12/18 04:24:02;;;;;;;;;47.50;45.25;;;;;-147.17;100.00;-15917.19;4990499;28;51155;-58
2022/12/18 04:26:27;;;;;;;;;45.00;39.50;;;;;-147.17;100.00;-15917.19;4974557;28;52224;-57
2022/12/18 04:28:53;;;;;;;;;40.00;35.50;;;;;-147.17;100.00;-15917.19;4995422;28;50960;-60
2022/12/18 04:31:18;;;;;;;;;43.25;36.00;;;;;-147.17;100.00;-15917.19;4995403;28;51201;-58
2022/12/18 04:33:44;;;;;;;;;22.50;17.00;;;;;-147.17;100.00;-15917.19;4995687;28;51107;-59
2022/12/18 04:36:09;;;;;;;;;38.50;35.50;;;;;-147.17;100.00;-15917.19;4993501;28;51165;-59
2022/12/18 04:38:34;;;;;;;;;42.00;37.75;;;;;-147.17;100.00;-15917.19;4995501;28;51144;-59
2022/12/18 04:41:00;;;;;;;;;34.00;30.00;;;;;-147.17;100.00;-15917.19;4987754;28;51181;-59
2022/12/18 04:43:25;;;;;;;;;46.25;39.25;;;;;-147.17;100.00;-15917.19;4991596;28;52086;-58
2022/12/18 04:45:50;;;;;;;;;36.00;34.25;;;;;-147.17;100.00;-15917.19;4993140;28;51080;-58
2022/12/18 04:48:16;;;;;;;;;38.50;31.00;;;;;-147.17;100.00;-15917.19;4995302;28;51161;-58
2022/12/18 04:50:41;;;;;;;;;36.25;28.50;;;;;-147.17;100.00;-15917.19;4978718;28;51032;-59
2022/12/18 04:53:06;;;;;;;;;33.25;29.25;;;;;-147.17;100.00;-15917.19;4995181;28;51288;-59
2022/12/18 04:55:32;;;;;;;;;41.25;32.25;;;;;-147.17;100.00;-15917.19;4992649;28;52862;-59
2022/12/18 04:57:57;;;;;;;;;38.50;33.75;;;;;-147.17;100.00;-15917.19;4990388;28;51037;-59
2022/12/18 05:00:23;;;;;;;;;37.75;32.00;;;;;-147.17;100.00;-15917.19;4986576;28;51393;-59
2022/12/18 05:02:48;;;;;;;;;54.00;41.50;;;;;-147.17;100.00;-15917.19;4993744;28;50903;-59
2022/12/18 05:05:13;;;;;;;;;21.50;17.50;;;;;-147.17;100.00;-15917.19;4974098;28;52841;-59
2022/12/18 05:07:39;;;;;;;;;47.00;42.00;;;;;-147.17;100.00;-15917.19;4977414;28;51096;-58
2022/12/18 05:10:08;;;;;;;;;40.25;32.50;;;;;-147.17;100.00;-15917.19;4995009;28;51161;-59
2022/12/18 05:12:33;;;;;;;;;6.00;6.00;;;;;-147.17;100.00;-15917.19;4993755;28;51258;-58
2022/12/18 05:14:59;;;;;;;;;37.25;34.50;;;;;-147.17;100.00;-15917.19;4993594;28;51604;-60
2022/12/18 05:17:24;;;;;;;;;44.50;37.00;;;;;-147.17;100.00;-15917.19;4986819;28;51106;-59
2022/12/18 05:19:50;;;;;;;;;40.75;35.00;;;;;-147.17;100.00;-15917.19;4981897;28;51039;-59
2022/12/18 05:22:15;;;;;;;;;37.00;33.50;;;;;-147.17;100.00;-15917.19;4993998;28;51130;-58
2022/12/18 05:24:40;;;;;;;;;39.00;35.00;;;;;-147.17;100.00;-15917.19;4993139;28;52028;-59
2022/12/18 05:27:06;;;;;;;;;32.75;29.50;;;;;-147.17;100.00;-15917.19;4978299;28;51082;-59
2022/12/18 05:29:31;;;;;;;;;48.50;42.25;;;;;-147.17;100.00;-15917.19;4991029;28;51063;-58
2022/12/18 05:31:56;;;;;;;;;37.50;30.50;;;;;-147.17;100.00;-15917.19;4976838;28;54030;-57
2022/12/18 05:34:22;;;;;;;;;37.50;33.25;;;;;-147.17;100.00;-15917.19;4972985;28;54164;-59
2022/12/18 05:36:47;;;;;;;;;39.00;36.50;;;;;-147.17;100.00;-15917.19;4981976;28;50916;-59
2022/12/18 05:39:13;;;;;;;;;36.75;35.75;;;;;-147.17;100.00;-15917.19;4992513;28;50867;-59
2022/12/18 05:41:38;;;;;;;;;34.25;31.75;;;;;-147.17;100.00;-15917.19;4995315;28;50829;-58
2022/12/18 05:44:03;;;;;;;;;40.25;34.25;;;;;-147.17;100.00;-15917.19;4993213;28;51066;-60
2022/12/18 05:46:29;;;;;;;;;43.00;36.00;;;;;-147.17;100.00;-15917.19;4989812;28;51140;-57
2022/12/18 05:48:55;;;;;;;;;42.00;38.50;;;;;-147.17;100.00;-15917.19;4991670;28;50919;-60
2022/12/18 05:51:22;;;;;;;;;33.50;31.50;;;;;-147.17;100.00;-15917.19;4977001;28;51289;-59
2022/12/18 05:53:48;;;;;;;;;47.00;41.25;;;;;-147.17;100.00;-15917.19;4988361;28;52040;-58
2022/12/18 05:56:19;;;;;;;;;38.50;32.25;;;;;-147.17;100.00;-15917.19;4992640;28;50987;-58
2022/12/18 05:58:45;;;;;;;;;37.75;32.50;;;;;-147.17;100.00;-15917.19;4975459;28;51288;-59
2022/12/18 06:01:17;;;;;;;;;34.25;29.50;;;;;-147.17;100.00;-15917.19;4992410;28;50886;-58
2022/12/18 06:03:42;;;;;;;;;34.50;30.25;;;;;-147.17;100.00;-15917.19;4983285;28;50951;-57
2022/12/18 06:06:15;;;;;;;;;41.00;37.75;;;;;-147.17;100.00;-15917.19;4984353;28;51074;-59
2022/12/18 06:08:41;;;;;;;;;28.50;24.00;;;;;-147.17;100.00;-15917.19;4994589;28;51126;-60
2022/12/18 06:11:06;;;;;;;;;47.50;39.50;;;;;-147.17;100.00;-15917.19;4994242;28;51340;-59
2022/12/18 06:13:32;;;;;;;;;36.50;35.25;;;;;-147.17;100.00;-15917.19;4992725;28;52276;-59
2022/12/18 06:15:57;;;;;;;;;39.75;36.75;;;;;-147.17;100.00;-15917.19;4993524;28;51235;-59
2022/12/18 06:18:22;;;;;;;;;34.00;29.75;;;;;-147.17;100.00;-15917.19;4992728;28;51084;-59
2022/12/18 06:20:55;;;;;;;;;36.00;33.75;;;;;-147.17;100.00;-15917.19;4986780;28;51019;-58
2022/12/18 06:23:21;;;;;;;;;39.00;33.25;;;;;-147.17;100.00;-15917.19;4991131;28;52328;-59
2022/12/18 06:25:46;;;;;;;;;40.00;35.75;;;;;-147.17;100.00;-15917.19;4980264;28;51205;-57
2022/12/18 06:28:11;;;;;;;;;40.25;37.50;;;;;-147.17;100.00;-15917.19;4994170;28;50997;-57
2022/12/18 06:30:37;;;;;;;;;42.75;36.00;;;;;-147.17;100.00;-15917.19;4991588;28;51400;-58
2022/12/18 06:33:02;;;;;;;;;39.50;37.00;;;;;-147.17;100.00;-15917.19;4981748;28;51677;-59
2022/12/18 06:35:27;;;;;;;;;41.25;38.75;;;;;-147.17;100.00;-15917.19;4990866;28;51087;-58
2022/12/18 06:37:53;;;;;;;;;35.50;29.00;;;;;-147.17;100.00;-15917.19;4987458;28;51762;-58
2022/12/18 06:40:18;;;;;;;;;43.75;39.00;;;;;-147.17;100.00;-15917.19;4975307;28;51254;-57
2022/12/18 06:42:44;;;;;;;;;37.75;33.50;;;;;-147.17;100.00;-15917.19;4990205;28;52152;-58
2022/12/18 06:45:13;;;;;;;;;38.50;35.00;;;;;-147.17;100.00;-15917.19;4993368;28;50866;-60
2022/12/18 06:47:39;;;;;;;;;36.75;33.75;;;;;-147.17;100.00;-15917.19;4993706;28;50947;-58
2022/12/18 06:50:06;;;;;;;;;39.50;35.50;;;;;-147.17;100.00;-15917.19;4993486;28;51021;-59
2022/12/18 06:52:32;;;;;;;;;53.25;40.00;;;;;-147.17;100.00;-15917.19;4982571;28;52107;-63
2022/12/18 06:54:57;;;;;;;;;38.00;36.25;;;;;-147.17;100.00;-15917.19;4978907;28;51076;-59
2022/12/18 06:57:23;;;;;;;;;35.75;31.25;;;;;-147.17;100.00;-15917.19;4990847;28;51051;-57
2022/12/18 06:59:48;;;;;;;;;36.50;31.50;;;;;-147.17;100.00;-15917.19;4993677;28;51233;-58
2022/12/18 07:02:14;;;;;;;;;42.50;39.00;;;;;-147.17;100.00;-15917.19;4971815;28;51135;-59
2022/12/18 07:04:39;;;;;;;;;37.75;34.75;;;;;-147.17;100.00;-15917.19;4991451;28;50924;-58
2022/12/18 07:07:04;;;;;;;;;37.50;32.75;;;;;-147.17;100.00;-15917.19;4986424;28;51559;-59
2022/12/18 07:09:30;;;;;;;;;39.25;36.25;;;;;-147.17;100.00;-15917.19;4986499;28;51038;-59
2022/12/18 07:11:55;;;;;;;;;34.00;31.00;;;;;-147.17;100.00;-15917.19;4982928;28;51693;-59
2022/12/18 07:14:20;;;;;;;;;38.50;34.00;;;;;-147.17;100.00;-15917.19;4989127;28;51034;-59
2022/12/18 07:16:46;;;;;;;;;36.50;32.50;;;;;-147.17;100.00;-15917.19;4986312;28;51542;-60
2022/12/18 07:19:11;;;;;;;;;41.25;36.00;;;;;-147.17;100.00;-15917.19;4988708;28;51114;-59
2022/12/18 07:21:37;;;;;;;;;34.25;29.25;;;;;-147.17;100.00;-15917.19;4970428;28;51896;-59
2022/12/18 07:24:02;;;;;;;;;42.25;38.00;;;;;-147.17;100.00;-15917.19;4980211;28;51141;-59
2022/12/18 07:26:28;;;;;;;;;37.75;35.75;;;;;-147.17;100.00;-15917.19;4988821;28;51312;-58
2022/12/18 07:28:57;;;;;;;;;40.50;36.75;;;;;-147.17;100.00;-15917.19;4962505;28;51277;-59
2022/12/18 07:31:23;;;;;;;;;43.50;39.25;;;;;-147.17;100.00;-15917.19;4986204;28;52102;-59
2022/12/18 07:33:50;;;;;;;;;38.25;35.50;;;;;-147.17;100.00;-15917.19;4992956;28;50952;-58
2022/12/18 07:36:16;;;;;;;;;43.00;38.75;;;;;-147.17;100.00;-15917.19;4990963;28;51978;-59
2022/12/18 07:38:41;;;;;;;;;41.75;37.75;;;;;-147.17;100.00;-15917.19;4974447;28;51210;-57
2022/12/18 07:41:11;;;;;;;;;36.75;33.50;;;;;-147.17;100.00;-15917.19;4997903;28;54046;-58
2022/12/18 07:43:38;;;;;;;;;37.50;33.25;;;;;-147.17;100.00;-15917.19;4992364;28;51106;-59
2022/12/18 07:46:04;;;;;;;;;43.00;35.50;;;;;-147.17;100.00;-15917.19;4974084;28;51104;-58
2022/12/18 07:48:30;;;;;;;;;39.25;35.50;;;;;-147.17;100.00;-15917.19;4981713;28;51019;-59
2022/12/18 07:51:04;;;;;;;;;50.00;38.50;;;;;-147.17;100.00;-15917.19;4990256;28;51045;-58
2022/12/18 07:53:30;;;;;;;;;43.50;39.00;;;;;-147.17;100.00;-15917.19;4991380;28;51073;-59
2022/12/18 07:56:00;;;;;;;;;35.75;34.25;;;;;-147.17;100.00;-15917.19;4983276;28;50931;-58
2022/12/18 07:58:26;;;;;;;;;40.75;33.75;;;;;-147.17;100.00;-15917.19;4974915;28;51366;-59
2022/12/18 08:00:52;;;;;;;;;42.75;38.25;;;;;-147.17;100.00;-15917.19;4982756;28;51719;-59
2022/12/18 08:03:18;;;;;;;;;40.50;38.00;;;;;-147.17;100.00;-15917.19;4971019;28;51261;-57
2022/12/18 08:05:43;;;;;;;;;44.00;36.75;;;;;-147.17;100.00;-15917.19;4992522;28;51061;-59
2022/12/18 08:08:09;;;;;;;;;39.25;36.00;;;;;-147.17;100.00;-15917.19;4989644;28;51577;-58
2022/12/18 08:10:34;;;;;;;;;36.25;31.00;;;;;-147.17;100.00;-15917.19;4992385;28;51020;-58
2022/12/18 08:12:59;;;;;;;;;47.00;41.75;;;;;-147.17;100.00;-15917.19;4993610;28;51140;-59
2022/12/18 08:15:25;;;;;;;;;35.75;33.00;;;;;-147.17;100.00;-15917.19;4987789;28;51529;-58
2022/12/18 08:17:50;;;;;;;;;48.75;41.50;;;;;-147.17;100.00;-15917.19;4990925;28;51265;-59
2022/12/18 08:20:18;;;;;;;;;47.75;36.00;;;;;-147.17;100.00;-15917.19;4985559;28;51754;-58
2022/12/18 08:22:43;;;;;;;;;38.00;34.25;;;;;-147.17;100.00;-15917.19;4977735;28;51792;-59
2022/12/18 08:25:09;;;;;;;;;44.50;39.50;;;;;-147.17;100.00;-15917.19;4984694;28;51279;-58
2022/12/18 08:27:34;;;;;;;;;43.00;40.00;;;;;-147.17;100.00;-15917.19;4967639;28;51179;-59
2022/12/18 08:30:00;;;;;;;;;44.00;34.00;;;;;-147.17;100.00;-15917.19;4989328;28;51775;-58
2022/12/18 08:32:27;;;;;;;;;43.75;39.50;;;;;-147.17;100.00;-15917.19;4988398;28;51063;-59
2022/12/18 08:34:52;;;;;;;;;40.75;32.25;;;;;-147.17;100.00;-15917.19;4991261;28;50973;-59
2022/12/18 08:37:18;;;;;;;;;43.25;38.50;;;;;-147.17;100.00;-15917.19;4978830;28;51223;-59
2022/12/18 08:39:43;;;;;;;;;29.25;26.75;;;;;-147.17;100.00;-15917.19;4991914;28;51715;-59
2022/12/18 08:44:53;;;;;;;;;38.00;33.50;;;;;-147.17;100.00;-15917.19;4987365;28;50982;-59
2022/12/18 08:47:18;;;;;;;;;30.50;23.25;;;;;-147.17;100.00;-15917.19;4992424;28;50907;-58
2022/12/18 08:49:44;;;;;;;;;43.50;36.50;;;;;-147.17;100.00;-15917.19;4976674;28;52890;-58
2022/12/18 08:52:09;;;;;;;;;33.75;31.50;;;;;-147.17;100.00;-15917.19;4981167;28;51397;-58
2022/12/18 08:54:34;;;;;;;;;41.50;33.00;;;;;-147.17;100.00;-15917.19;4992507;28;51657;-56
2022/12/18 08:57:00;;;;;;;;;48.25;41.25;;;;;-147.17;100.00;-15917.19;4993033;28;50987;-54
2022/12/18 08:59:25;;;;;;;;;42.75;38.00;;;;;-147.17;100.00;-15917.19;4988228;28;52008;-57
2022/12/18 09:01:53;;;;;;;;;35.25;31.50;;;;;-147.17;100.00;-15917.19;4988808;28;51158;-57
2022/12/18 09:04:19;;;;;;;;;47.25;44.50;;;;;-147.17;100.00;-15917.19;4991997;28;51223;-54
2022/12/18 09:06:44;;;;;;;;;33.50;29.25;;;;;-147.17;100.00;-15917.19;4992157;28;51124;-55
2022/12/18 09:09:10;;;;;;;;;41.75;36.75;;;;;-147.17;100.00;-15917.19;4984336;28;52667;-56
2022/12/18 09:11:37;;;;;;;;;41.50;38.75;;;;;-147.17;100.00;-15917.19;4992022;28;51175;-54
2022/12/18 09:14:03;;;;;;;;;44.75;41.25;;;;;-147.17;100.00;-15917.19;4993108;28;51136;-56
2022/12/18 09:16:29;;;;;;;;;40.50;35.00;;;;;-147.17;100.00;-15917.19;4994396;28;50946;-56
2022/12/18 09:18:59;;;;;;;;;41.50;31.50;;;;;-147.17;100.00;-15917.19;4985615;28;51593;-57
2022/12/18 09:21:26;;;;;;;;;51.00;45.50;;;;;-147.17;100.00;-15917.19;4977228;28;51218;-57
2022/12/18 09:23:53;;;;;;;;;46.75;39.00;;;;;-147.17;100.00;-15917.19;4993812;28;51310;-56
2022/12/18 09:26:20;;;;;;;;;42.50;39.25;;;;;-147.17;100.00;-15917.19;4981707;28;51121;-57
2022/12/18 09:28:45;;;;;;;;;44.75;37.00;;;;;-147.17;100.00;-15917.19;4992978;28;50979;-57
2022/12/18 09:31:12;;;;;;;;;46.50;38.75;;;;;-147.17;100.00;-15917.19;4990799;28;50979;-59
2022/12/18 09:33:37;;;;;;;;;50.00;42.50;;;;;-147.17;100.00;-15917.19;4994052;28;51112;-56
2022/12/18 09:36:07;;;;;;;;;45.00;34.50;;;;;-147.17;100.00;-15917.19;4994219;28;51259;-56
2022/12/18 09:38:33;;;;;;;;;47.00;42.50;;;;;-147.17;100.00;-15917.19;4992804;28;51950;-56
2022/12/18 09:41:17;;;;;;;;;44.00;39.00;;;;;-147.17;100.00;-15917.19;4980781;28;51031;-56
2022/12/18 09:43:49;;;;;;;;;54.25;42.75;;;;;-147.17;100.00;-15917.19;4970857;28;51408;-56
2022/12/18 09:46:30;;;;;;;;;49.75;42.00;;;;;-147.17;100.00;-15917.19;4992773;28;51004;-56
2022/12/18 09:49:00;;;;;;;;;47.50;37.25;;;;;-147.17;100.00;-15917.19;4989177;28;51783;-57
2022/12/18 09:51:37;;;;;;;;;51.50;37.50;;;;;-147.17;100.00;-15917.19;4992202;28;51104;-56
2022/12/18 09:54:20;;;;;;;;;51.50;42.75;;;;;-147.17;100.00;-15917.19;4992724;28;51004;-57
2022/12/18 09:56:45;;;;;;;;;48.50;45.25;;;;;-147.17;100.00;-15917.19;4993405;28;50978;-56
2022/12/18 09:59:30;;;;;;;;;52.25;45.25;;;;;-147.17;100.00;-15917.19;4993019;28;51773;-57
2022/12/18 10:01:56;;;;;;;;;38.00;36.75;;;;;-147.17;100.00;-15917.19;4993293;28;51105;-57
2022/12/18 10:04:21;;;;;;;;;48.50;42.75;;;;;-147.17;100.00;-15917.19;4992330;28;51073;-51
2022/12/18 10:07:03;;;;;;;;;44.25;39.50;;;;;-147.17;100.00;-15917.19;4991953;28;50873;-48
2022/12/18 10:09:42;;;;;;;;;62.75;49.00;;;;;-147.17;100.00;-15917.19;4985200;28;51056;-49
2022/12/18 10:12:23;;;;;;;;;48.25;43.50;;;;;-147.17;100.00;-15917.19;4977673;28;51419;-49
2022/12/18 10:14:53;;;;;;;;;57.00;44.00;;;;;-147.17;100.00;-15917.19;4988604;28;51001;-48
2022/12/18 10:17:37;;;;;;;;;50.25;45.25;;;;;-147.17;100.00;-15917.19;4993298;28;51397;-50
2022/12/18 10:20:13;;;;;;;;;45.25;41.00;;;;;-147.17;100.00;-15917.19;4976580;28;52343;-50
2022/12/18 10:23:06;;;;;;;;;53.75;48.00;;;;;-147.17;100.00;-15917.19;4989076;28;51147;-50
2022/12/18 10:26:01;;;;;;;;;48.25;45.00;;;;;-147.17;100.00;-15917.19;4990039;28;51212;-52
2022/12/18 10:28:30;;;;;;;;;49.50;42.25;;;;;-147.17;100.00;-15917.19;4993716;28;50963;-50
2022/12/18 10:30:57;;;;;;;;;54.50;48.50;;;;;-147.17;100.00;-15917.19;4986307;28;52308;-49
2022/12/18 10:33:27;;;;;;;;;50.50;43.00;;;;;-147.17;100.00;-15917.19;4991260;28;51129;-50
2022/12/18 10:35:53;;;;;;;;;52.75;45.00;;;;;-147.17;100.00;-15917.19;4992956;28;51007;-52
2022/12/18 10:38:19;;;;;;;;;49.25;41.25;;;;;-147.17;100.00;-15917.19;4987033;28;50947;-49
2022/12/18 10:41:01;;;;;;;;;53.75;43.25;;;;;-147.17;100.00;-15917.19;4992041;28;51936;-50
2022/12/18 10:43:34;;;;;;;;;46.25;43.50;;;;;-147.17;100.00;-15917.19;4991303;28;51044;-48
2022/12/18 10:46:09;;;;;;;;;50.00;45.25;;;;;-147.17;100.00;-15917.19;4990704;28;51165;-48
2022/12/18 10:48:52;;;;;;;;;48.50;44.25;;;;;-147.17;100.00;-15917.19;4993325;28;51338;-49
2022/12/18 10:51:31;;;;;;;;;45.75;42.00;;;;;-147.17;100.00;-15917.19;4989112;28;51883;-50
2022/12/18 10:54:03;;;;;;;;;51.75;44.50;;;;;-147.17;100.00;-15917.19;4974747;28;51191;-50
2022/12/18 10:56:31;;;;;;;;;34.50;34.00;;;;;-147.17;100.00;-15917.19;4981207;28;51003;-51
2022/12/18 10:59:08;;;;;;;;;54.00;46.75;;;;;-147.17;100.00;-15917.19;4991793;28;51003;-52
2022/12/18 11:01:57;;;;;;;;;57.00;46.50;;;;;-147.17;100.00;-15917.19;4984827;28;52036;-50